Time,TemperatureF,DewpointF,PressureIn,WindDirection,WindDirectionDegrees,WindSpeedMPH,WindSpeedGustMPH,Humidity,HourlyPrecipIn,Conditions,Clouds,dailyrainin,SoftwareType,DateUTC
2013-10-01 00:05:00,61.3,59.0,29.91,SSE,163,0.0,-999.0,92,-99.99,,,0.00,weatherlink.com 1.10,2013-10-01 05:05:00,
2013-10-01 00:20:00,61.4,59.0,29.93,SSE,158,0.0,-999.0,92,-99.99,,,0.00,weatherlink.com 1.10,2013-10-01 05:20:00,
2013-10-01 00:35:00,61.2,59.0,29.92,SSE,157,0.0,-999.0,93,-99.99,,,0.00,weatherlink.com 1.10,2013-10-01 05:35:00,
2013-10-01 00:50:00,61.1,59.0,29.92,SSE,163,0.0,-999.0,93,-99.99,,,0.00,weatherlink.com 1.10,2013-10-01 05:50:00,
2013-10-01 01:06:00,60.7,59.0,29.92,SSE,161,0.0,-999.0,93,-99.99,,,0.00,weatherlink.com 1.10,2013-10-01 06:06:00,
2013-10-01 01:20:00,60.5,59.0,29.92,SSE,161,0.0,-999.0,94,-99.99,,,0.00,weatherlink.com 1.10,2013-10-01 06:20:00,
2013-10-01 01:35:00,60.5,59.0,29.92,SSE,160,0.0,-999.0,94,-99.99,,,0.00,weatherlink.com 1.10,2013-10-01 06:35:00,
2013-10-01 01:50:00,60.6,59.0,29.92,SSE,167,0.0,-999.0,94,-99.99,,,0.00,weatherlink.com 1.10,2013-10-01 06:50:00,
2013-10-01 02:05:00,60.4,59.0,29.92,SSE,163,0.0,-999.0,95,-99.99,,,0.00,weatherlink.com 1.10,2013-10-01 07:05:00,
2013-10-01 02:20:00,61.3,60.0,29.92,SSW,198,0.0,-999.0,95,-99.99,,,0.00,weatherlink.com 1.10,2013-10-01 07:20:00,
2013-10-01 02:35:00,61.7,60.0,29.92,SW,230,0.0,-999.0,95,-99.99,,,0.00,weatherlink.com 1.10,2013-10-01 07:35:00,
2013-10-01 02:50:00,62.1,61.0,29.92,SW,223,0.0,-999.0,95,-99.99,,,0.00,weatherlink.com 1.10,2013-10-01 07:50:00,
2013-10-01 03:05:00,62.4,61.0,29.93,SW,229,1.0,-999.0,96,-99.99,,,0.00,weatherlink.com 1.10,2013-10-01 08:05:00,
2013-10-01 03:20:00,62.3,61.0,29.93,South,183,0.0,-999.0,95,-99.99,,,0.00,weatherlink.com 1.10,2013-10-01 08:20:00,
2013-10-01 03:35:00,62.1,61.0,29.92,SSW,193,1.0,-999.0,95,-99.99,,,0.00,weatherlink.com 1.10,2013-10-01 08:35:00,
2013-10-01 03:50:00,61.9,61.0,29.93,SW,217,0.0,-999.0,95,-99.99,,,0.00,weatherlink.com 1.10,2013-10-01 08:50:00,
2013-10-01 04:05:00,61.8,61.0,29.93,South,189,0.0,-999.0,96,-99.99,,,0.00,weatherlink.com 1.10,2013-10-01 09:05:00,
2013-10-01 04:20:00,62.0,61.0,29.94,SSW,205,0.0,-999.0,96,-99.99,,,0.00,weatherlink.com 1.10,2013-10-01 09:20:00,
2013-10-01 04:35:00,62.1,61.0,29.94,SW,232,0.0,-999.0,96,-99.99,,,0.00,weatherlink.com 1.10,2013-10-01 09:35:00,
2013-10-01 04:50:00,62.3,61.0,29.95,SSW,208,0.0,-999.0,96,-99.99,,,0.00,weatherlink.com 1.10,2013-10-01 09:50:00,
2013-10-01 05:05:00,62.5,61.0,29.96,SW,219,0.0,-999.0,96,-99.99,,,0.00,weatherlink.com 1.10,2013-10-01 10:05:00,
2013-10-01 05:20:00,62.6,62.0,29.96,SSW,196,10.0,-999.0,96,-99.99,,,0.00,weatherlink.com 1.10,2013-10-01 10:20:00,
2013-10-01 05:35:00,62.7,62.0,29.96,SW,221,0.0,-999.0,96,-99.99,,,0.00,weatherlink.com 1.10,2013-10-01 10:35:00,
2013-10-01 05:50:00,62.9,62.0,29.96,SW,222,0.0,-999.0,95,-99.99,,,0.00,weatherlink.com 1.10,2013-10-01 10:50:00,
2013-10-01 06:21:00,63.1,62.0,29.97,SW,225,0.0,-999.0,95,-99.99,,,0.00,weatherlink.com 1.10,2013-10-01 11:21:00,
2013-10-01 06:36:00,63.3,62.0,29.98,SSW,194,0.0,-999.0,94,-99.99,,,0.00,weatherlink.com 1.10,2013-10-01 11:36:00,
2013-10-01 06:51:00,63.5,62.0,29.98,SSW,203,0.0,-999.0,94,-99.99,,,0.00,weatherlink.com 1.10,2013-10-01 11:51:00,
2013-10-01 07:06:00,63.7,62.0,29.98,SSW,204,0.0,-999.0,93,-99.99,,,0.00,weatherlink.com 1.10,2013-10-01 12:06:00,
2013-10-01 07:21:00,63.8,62.0,29.98,SSW,195,0.0,-999.0,93,-99.99,,,0.00,weatherlink.com 1.10,2013-10-01 12:21:00,
2013-10-01 07:36:00,64.0,62.0,29.98,SSE,162,0.0,-999.0,93,-99.99,,,0.00,weatherlink.com 1.10,2013-10-01 12:36:00,
2013-10-01 07:51:00,64.1,62.0,29.99,SW,217,0.0,-999.0,92,-99.99,,,0.00,weatherlink.com 1.10,2013-10-01 12:51:00,
2013-10-01 08:06:00,64.3,62.0,29.98,SE,146,0.0,-999.0,92,-99.99,,,0.00,weatherlink.com 1.10,2013-10-01 13:06:00,
2013-10-01 08:21:00,64.6,62.0,29.98,South,174,0.0,-999.0,92,-99.99,,,0.00,weatherlink.com 1.10,2013-10-01 13:21:00,
2013-10-01 08:36:00,65.6,63.0,29.98,SSW,206,4.0,-999.0,91,-99.99,,,0.00,weatherlink.com 1.10,2013-10-01 13:36:00,
2013-10-01 08:52:00,66.4,63.0,29.98,SSW,202,1.0,-999.0,88,-99.99,,,0.00,weatherlink.com 1.10,2013-10-01 13:52:00,
2013-10-01 09:06:00,66.9,63.0,29.99,WSW,244,2.0,-999.0,88,-99.99,,,0.00,weatherlink.com 1.10,2013-10-01 14:06:00,
2013-10-01 09:21:00,67.1,63.0,29.99,SSW,198,10.0,-999.0,86,-99.99,,,0.00,weatherlink.com 1.10,2013-10-01 14:21:00,
2013-10-01 09:36:00,67.1,63.0,29.99,SSW,193,12.0,-999.0,86,-99.99,,,0.00,weatherlink.com 1.10,2013-10-01 14:36:00,
2013-10-01 09:51:00,67.4,63.0,29.99,South,188,7.0,-999.0,86,-99.99,,,0.00,weatherlink.com 1.10,2013-10-01 14:51:00,
2013-10-01 10:06:00,67.7,63.0,29.99,SW,221,1.0,-999.0,84,-99.99,,,0.00,weatherlink.com 1.10,2013-10-01 15:06:00,
2013-10-01 10:21:00,67.9,63.0,29.98,SSW,209,0.0,-999.0,84,-99.99,,,0.00,weatherlink.com 1.10,2013-10-01 15:21:00,
2013-10-01 10:36:00,68.2,63.0,29.98,SW,234,4.0,-999.0,83,-99.99,,,0.00,weatherlink.com 1.10,2013-10-01 15:36:00,
2013-10-01 10:51:00,68.6,63.0,29.98,SSE,149,5.0,-999.0,83,-99.99,,,0.00,weatherlink.com 1.10,2013-10-01 15:51:00,
2013-10-01 11:06:00,69.3,63.0,29.98,SSW,211,0.0,-999.0,81,-99.99,,,0.00,weatherlink.com 1.10,2013-10-01 16:06:00,
2013-10-01 11:21:00,69.7,63.0,29.98,South,187,0.0,-999.0,80,-99.99,,,0.00,weatherlink.com 1.10,2013-10-01 16:21:00,
2013-10-01 11:36:00,70.1,64.0,29.98,SW,216,7.0,-999.0,80,-99.99,,,0.00,weatherlink.com 1.10,2013-10-01 16:36:00,
2013-10-01 11:51:00,70.3,64.0,29.98,WSW,240,0.0,-999.0,79,-99.99,,,0.00,weatherlink.com 1.10,2013-10-01 16:51:00,
2013-10-01 12:07:00,70.8,64.0,29.97,SW,216,13.0,-999.0,78,-99.99,,,0.00,weatherlink.com 1.10,2013-10-01 17:07:00,
2013-10-01 12:22:00,71.7,64.0,29.97,SSE,155,4.0,-999.0,76,-99.99,,,0.00,weatherlink.com 1.10,2013-10-01 17:22:00,
2013-10-01 12:37:00,73.4,64.0,29.97,WSW,237,3.0,-999.0,73,-99.99,,,0.00,weatherlink.com 1.10,2013-10-01 17:37:00,
2013-10-01 12:52:00,74.4,65.0,29.96,SW,225,3.0,-999.0,72,-99.99,,,0.00,weatherlink.com 1.10,2013-10-01 17:52:00,
2013-10-01 13:07:00,74.6,64.0,29.94,SSW,203,1.0,-999.0,70,-99.99,,,0.00,weatherlink.com 1.10,2013-10-01 18:07:00,
2013-10-01 13:22:00,75.8,64.0,29.94,SSW,206,4.0,-999.0,68,-99.99,,,0.00,weatherlink.com 1.10,2013-10-01 18:22:00,
2013-10-01 13:38:00,76.9,65.0,29.94,SW,216,4.0,-999.0,67,-99.99,,,0.00,weatherlink.com 1.10,2013-10-01 18:38:00,
2013-10-01 13:53:00,77.9,65.0,29.94,SE,134,4.0,-999.0,65,-99.99,,,0.00,weatherlink.com 1.10,2013-10-01 18:53:00,
2013-10-01 14:07:00,78.4,65.0,29.93,WSW,253,0.0,-999.0,63,-99.99,,,0.00,weatherlink.com 1.10,2013-10-01 19:07:00,
2013-10-01 14:22:00,78.4,65.0,29.93,SSW,201,2.0,-999.0,64,-99.99,,,0.00,weatherlink.com 1.10,2013-10-01 19:22:00,
2013-10-01 14:37:00,78.8,65.0,29.93,SSW,194,9.0,-999.0,63,-99.99,,,0.00,weatherlink.com 1.10,2013-10-01 19:37:00,
2013-10-01 14:52:00,78.7,65.0,29.93,SW,229,0.0,-999.0,63,-99.99,,,0.00,weatherlink.com 1.10,2013-10-01 19:52:00,
2013-10-01 15:07:00,79.1,65.0,29.92,SW,232,0.0,-999.0,62,-99.99,,,0.00,weatherlink.com 1.10,2013-10-01 20:07:00,
2013-10-01 15:22:00,80.3,66.0,29.91,SW,219,9.0,-999.0,61,-99.99,,,0.00,weatherlink.com 1.10,2013-10-01 20:22:00,
2013-10-01 15:37:00,80.4,66.0,29.91,SW,225,3.0,-999.0,61,-99.99,,,0.00,weatherlink.com 1.10,2013-10-01 20:37:00,
2013-10-01 15:52:00,80.3,65.0,29.91,WSW,240,0.0,-999.0,59,-99.99,,,0.00,weatherlink.com 1.10,2013-10-01 20:52:00,
2013-10-01 16:07:00,80.2,65.0,29.90,SSW,206,0.0,-999.0,60,-99.99,,,0.00,weatherlink.com 1.10,2013-10-01 21:07:00,
2013-10-01 16:22:00,80.2,65.0,29.91,SSW,198,3.0,-999.0,60,-99.99,,,0.00,weatherlink.com 1.10,2013-10-01 21:22:00,
2013-10-01 16:37:00,79.8,65.0,29.90,SW,227,9.0,-999.0,60,-99.99,,,0.00,weatherlink.com 1.10,2013-10-01 21:37:00,
2013-10-01 16:52:00,80.2,64.0,29.91,SW,221,3.0,-999.0,59,-99.99,,,0.00,weatherlink.com 1.10,2013-10-01 21:52:00,
2013-10-01 17:08:00,79.6,65.0,29.91,SW,235,5.0,-999.0,61,-99.99,,,0.00,weatherlink.com 1.10,2013-10-01 22:08:00,
2013-10-01 17:23:00,79.3,65.0,29.91,SSW,201,4.0,-999.0,62,-99.99,,,0.00,weatherlink.com 1.10,2013-10-01 22:23:00,
2013-10-01 17:38:00,78.7,65.0,29.91,SSE,167,7.0,-999.0,63,-99.99,,,0.00,weatherlink.com 1.10,2013-10-01 22:38:00,
2013-10-01 17:53:00,78.4,65.0,29.91,WSW,242,0.0,-999.0,64,-99.99,,,0.00,weatherlink.com 1.10,2013-10-01 22:53:00,
2013-10-01 18:08:00,77.7,65.0,29.91,WSW,257,7.0,-999.0,66,-99.99,,,0.00,weatherlink.com 1.10,2013-10-01 23:08:00,
2013-10-01 18:23:00,76.9,65.0,29.92,SW,221,4.0,-999.0,67,-99.99,,,0.00,weatherlink.com 1.10,2013-10-01 23:23:00,
2013-10-01 18:38:00,76.1,65.0,29.92,SW,221,0.0,-999.0,69,-99.99,,,0.00,weatherlink.com 1.10,2013-10-01 23:38:00,
2013-10-01 18:53:00,75.3,66.0,29.92,SSW,212,0.0,-999.0,72,-99.99,,,0.00,weatherlink.com 1.10,2013-10-01 23:53:00,
2013-10-01 19:08:00,74.4,66.0,29.93,SSW,192,0.0,-999.0,74,-99.99,,,0.00,weatherlink.com 1.10,2013-10-02 00:08:00,
2013-10-01 19:23:00,73.6,66.0,29.93,SSW,210,0.0,-999.0,76,-99.99,,,0.00,weatherlink.com 1.10,2013-10-02 00:23:00,
2013-10-01 19:38:00,72.6,65.0,29.93,SW,232,0.0,-999.0,78,-99.99,,,0.00,weatherlink.com 1.10,2013-10-02 00:38:00,
2013-10-01 19:53:00,71.8,66.0,29.93,SW,218,0.0,-999.0,81,-99.99,,,0.00,weatherlink.com 1.10,2013-10-02 00:53:00,
2013-10-01 20:08:00,71.1,66.0,29.94,SW,217,0.0,-999.0,83,-99.99,,,0.00,weatherlink.com 1.10,2013-10-02 01:08:00,
2013-10-01 20:23:00,70.4,65.0,29.95,SW,223,0.0,-999.0,84,-99.99,,,0.00,weatherlink.com 1.10,2013-10-02 01:23:00,
2013-10-01 20:38:00,69.9,65.0,29.95,SW,225,0.0,-999.0,85,-99.99,,,0.00,weatherlink.com 1.10,2013-10-02 01:38:00,
2013-10-01 20:53:00,69.3,65.0,29.95,SW,223,0.0,-999.0,87,-99.99,,,0.00,weatherlink.com 1.10,2013-10-02 01:53:00,
2013-10-01 21:08:00,68.8,65.0,29.95,SW,215,0.0,-999.0,88,-99.99,,,0.00,weatherlink.com 1.10,2013-10-02 02:08:00,
2013-10-01 21:24:00,68.2,65.0,29.96,SW,217,0.0,-999.0,88,-99.99,,,0.00,weatherlink.com 1.10,2013-10-02 02:24:00,
2013-10-01 21:38:00,67.6,64.0,29.96,SW,216,0.0,-999.0,89,-99.99,,,0.00,weatherlink.com 1.10,2013-10-02 02:38:00,
2013-10-01 21:53:00,67.2,64.0,29.96,SW,216,0.0,-999.0,90,-99.99,,,0.00,weatherlink.com 1.10,2013-10-02 02:53:00,
2013-10-01 22:08:00,66.7,64.0,29.96,SW,216,0.0,-999.0,90,-99.99,,,0.00,weatherlink.com 1.10,2013-10-02 03:08:00,
2013-10-01 22:23:00,66.3,64.0,29.96,SW,219,0.0,-999.0,91,-99.99,,,0.00,weatherlink.com 1.10,2013-10-02 03:23:00,
2013-10-01 22:38:00,66.0,64.0,29.96,SW,219,0.0,-999.0,92,-99.99,,,0.00,weatherlink.com 1.10,2013-10-02 03:38:00,
2013-10-01 22:53:00,65.8,64.0,29.96,SW,220,0.0,-999.0,92,-99.99,,,0.00,weatherlink.com 1.10,2013-10-02 03:53:00,
2013-10-01 23:08:00,65.7,64.0,29.96,SW,220,0.0,-999.0,93,-99.99,,,0.00,weatherlink.com 1.10,2013-10-02 04:08:00,
2013-10-01 23:23:00,65.6,64.0,29.96,SW,220,0.0,-999.0,93,-99.99,,,0.00,weatherlink.com 1.10,2013-10-02 04:23:00,
2013-10-01 23:38:00,65.5,64.0,29.96,SSW,213,0.0,-999.0,93,-99.99,,,0.00,weatherlink.com 1.10,2013-10-02 04:38:00,
2013-10-01 23:53:00,65.3,63.0,29.96,SSW,208,0.0,-999.0,93,-99.99,,,0.00,weatherlink.com 1.10,2013-10-02 04:53:00,